createdAt,value
2022-09-12T00:01:27.058Z,45.10
2022-09-12T00:04:00.953Z,41.60
2022-09-12T00:06:34.098Z,46.30
2022-09-12T00:09:09.782Z,45.20
2022-09-12T00:11:41.482Z,42.20
2022-09-12T00:14:15.450Z,42.90
2022-09-12T00:16:43.717Z,44.70
2022-09-12T00:19:12.420Z,46.60
2022-09-12T00:21:41.794Z,44.40
2022-09-12T00:24:11.029Z,43.80
2022-09-12T00:26:38.894Z,49.50
2022-09-12T00:29:06.835Z,52.40
2022-09-12T00:31:34.709Z,50.40
2022-09-12T00:34:02.490Z,56.80
2022-09-12T00:36:30.943Z,54.20
2022-09-12T00:38:59.470Z,49.50
2022-09-12T00:41:34.162Z,49.90
2022-09-12T00:44:21.981Z,51.00
2022-09-12T00:47:00.558Z,48.80
2022-09-12T00:49:52.272Z,51.50
2022-09-12T00:52:34.991Z,55.40
2022-09-12T00:55:12.028Z,57.50
2022-09-12T00:57:55.502Z,54.30
2022-09-12T01:00:26.643Z,49.70
2022-09-12T01:03:09.035Z,53.10
2022-09-12T01:05:44.388Z,55.50
2022-09-12T01:08:12.500Z,56.10
2022-09-12T01:10:42.506Z,54.80
2022-09-12T01:13:11.260Z,49.40
2022-09-12T01:15:40.338Z,55.10
2022-09-12T01:18:56.583Z,53.00
2022-09-12T01:22:13.014Z,52.80
2022-09-12T01:24:56.014Z,44.10
2022-09-12T01:27:36.840Z,49.20
2022-09-12T01:30:24.018Z,48.40
2022-09-12T01:33:12.553Z,56.80
2022-09-12T01:36:30.914Z,60.30
2022-09-12T01:39:41.332Z,47.10
2022-09-12T01:42:27.723Z,49.70
2022-09-12T01:45:23.882Z,50.30
2022-09-12T01:48:05.943Z,56.00
2022-09-12T01:51:07.586Z,58.80
2022-09-12T01:56:27.053Z,57.30
2022-09-12T01:59:20.145Z,55.00
2022-09-12T02:02:18.874Z,50.00
2022-09-12T02:05:05.873Z,51.90
2022-09-12T02:07:43.785Z,56.80
2022-09-12T02:10:23.299Z,56.00
2022-09-12T02:13:32.106Z,59.60
2022-09-12T02:16:12.004Z,57.50
2022-09-12T02:18:47.170Z,57.70
2022-09-12T02:21:19.415Z,60.20
2022-09-12T02:23:57.369Z,57.70
2022-09-12T02:26:34.910Z,58.10
2022-09-12T02:29:04.389Z,54.70
2022-09-12T02:31:37.742Z,53.10
2022-09-12T02:34:39.822Z,55.40
2022-09-12T02:37:45.796Z,57.30
2022-09-12T02:40:14.783Z,56.60
2022-09-12T02:42:42.735Z,57.80
2022-09-12T02:45:12.518Z,54.00
2022-09-12T02:47:46.842Z,62.20
2022-09-12T02:50:14.758Z,63.70
2022-09-12T02:52:43.675Z,58.90
2022-09-12T02:55:12.524Z,60.10
2022-09-12T02:57:40.523Z,62.20
2022-09-12T03:00:09.733Z,63.90
2022-09-12T03:03:19.918Z,67.90
2022-09-12T03:06:02.109Z,61.60
2022-09-12T03:09:01.370Z,61.00
2022-09-12T03:12:07.326Z,55.40
2022-09-12T03:15:14.769Z,65.20
2022-09-12T03:17:56.421Z,56.00
2022-09-12T03:20:47.853Z,62.40
2022-09-12T03:26:02.223Z,62.20
2022-09-12T03:28:34.612Z,63.10
2022-09-12T03:31:14.467Z,54.10
2022-09-12T03:33:42.441Z,57.00
2022-09-12T03:36:24.194Z,57.20
2022-09-12T03:38:52.563Z,50.30
2022-09-12T03:41:21.243Z,59.00
2022-09-12T03:43:49.078Z,49.80
2022-09-12T03:46:16.766Z,53.40
2022-09-12T03:48:44.465Z,52.90
2022-09-12T03:51:12.370Z,51.70
2022-09-12T03:53:40.119Z,52.10
2022-09-12T03:56:11.423Z,51.80
2022-09-12T04:01:13.348Z,50.80
2022-09-12T04:03:47.761Z,53.40
2022-09-12T04:06:20.202Z,51.30
2022-09-12T04:08:53.918Z,49.70
2022-09-12T04:11:23.664Z,51.10
2022-09-12T04:13:51.836Z,47.00
2022-09-12T04:16:20.233Z,54.40
2022-09-12T04:18:48.060Z,53.40
2022-09-12T04:21:19.615Z,47.10
2022-09-12T04:23:48.291Z,47.80
2022-09-12T04:26:18.022Z,52.40
2022-09-12T04:28:46.666Z,53.50
2022-09-12T04:31:18.358Z,52.60
2022-09-12T04:33:46.528Z,61.40
2022-09-12T04:36:17.529Z,55.60
2022-09-12T04:38:47.669Z,54.30
2022-09-12T04:41:30.877Z,62.50
2022-09-12T04:44:03.252Z,59.80
2022-09-12T04:46:35.677Z,53.90
2022-09-12T04:49:05.134Z,56.80
2022-09-12T04:51:36.409Z,51.50
2022-09-12T04:56:41.297Z,55.10
2022-09-12T04:59:09.161Z,51.00
2022-09-12T05:01:37.191Z,49.40
2022-09-12T05:04:05.379Z,55.20
2022-09-12T05:06:37.060Z,55.00
2022-09-12T05:09:07.769Z,63.10
2022-09-12T05:12:03.309Z,62.20
2022-09-12T05:14:27.456Z,64.90
2022-09-12T05:16:59.671Z,62.10
2022-09-12T05:19:30.066Z,60.50
2022-09-12T05:21:58.991Z,66.80
2022-09-12T05:24:27.060Z,54.90
2022-09-12T05:26:55.189Z,56.00
2022-09-12T05:29:22.920Z,56.50
2022-09-12T05:31:53.417Z,57.10
2022-09-12T05:34:21.615Z,61.40
2022-09-12T05:36:49.570Z,57.40
2022-09-12T05:39:18.529Z,57.80
2022-09-12T05:41:47.306Z,58.30
2022-09-12T05:44:15.540Z,57.10
2022-09-12T05:46:51.330Z,57.20
2022-09-12T05:49:19.215Z,53.90
2022-09-12T05:51:46.921Z,54.60
2022-09-12T05:54:19.445Z,53.40
2022-09-12T05:56:48.848Z,55.40
2022-09-12T05:59:21.107Z,63.30
2022-09-12T06:01:49.120Z,63.10
2022-09-12T06:04:17.563Z,59.60
2022-09-12T06:06:46.809Z,58.30
2022-09-12T06:09:16.896Z,60.70
2022-09-12T06:11:46.574Z,56.90
2022-09-12T06:14:17.868Z,66.30
2022-09-12T06:16:47.367Z,59.90
2022-09-12T06:19:21.874Z,50.70
2022-09-12T06:21:53.468Z,55.60
2022-09-12T06:24:21.786Z,57.50
2022-09-12T06:26:52.813Z,52.30
2022-09-12T06:29:21.241Z,56.30
2022-09-12T06:31:48.945Z,52.50
2022-09-12T06:34:16.986Z,53.40
2022-09-12T06:36:48.739Z,53.70
2022-09-12T06:39:22.623Z,58.20
2022-09-12T06:41:52.210Z,54.40
2022-09-12T06:44:29.790Z,59.80
2022-09-12T06:46:58.693Z,54.20
2022-09-12T06:49:26.391Z,61.00
2022-09-12T06:51:54.004Z,59.90
2022-09-12T06:54:21.657Z,58.10
2022-09-12T06:56:49.379Z,55.70
2022-09-12T06:59:17.091Z,60.70
2022-09-12T07:01:44.767Z,64.60
2022-09-12T07:04:12.546Z,58.40
2022-09-12T07:06:43.996Z,56.00
2022-09-12T07:09:16.987Z,58.00
2022-09-12T07:11:46.090Z,62.60
2022-09-12T07:14:15.134Z,65.70
2022-09-12T07:16:43.493Z,63.00
2022-09-12T07:19:12.071Z,61.50
2022-09-12T07:21:40.772Z,63.70
2022-09-12T07:24:11.079Z,67.70
2022-09-12T07:26:42.229Z,61.10
2022-09-12T07:29:35.883Z,54.30
2022-09-12T07:32:05.823Z,56.30
2022-09-12T07:34:34.927Z,55.00
2022-09-12T07:37:03.127Z,57.40
2022-09-12T07:39:30.961Z,56.00
2022-09-12T07:41:59.170Z,53.60
2022-09-12T07:44:29.058Z,50.70
2022-09-12T07:46:56.728Z,54.10
2022-09-12T07:49:24.417Z,50.40
2022-09-12T07:51:52.170Z,45.10
2022-09-12T07:54:20.024Z,44.70
2022-09-12T07:56:47.703Z,43.50
2022-09-12T07:59:29.963Z,42.10
2022-09-12T08:02:03.953Z,34.10
2022-09-12T08:04:31.691Z,33.70
2022-09-12T08:06:59.357Z,38.80
2022-09-12T08:09:26.998Z,34.10
2022-09-12T08:11:54.662Z,37.40
2022-09-12T08:14:22.730Z,40.10
2022-09-12T08:16:50.334Z,34.40
2022-09-12T08:19:18.035Z,39.80
2022-09-12T08:21:45.757Z,37.10
2022-09-12T08:24:13.398Z,34.90
2022-09-12T08:26:41.167Z,38.90
2022-09-12T08:29:09.161Z,32.00
2022-09-12T08:31:37.025Z,36.50
2022-09-12T08:34:06.509Z,30.30
2022-09-12T08:36:35.440Z,34.00
2022-09-12T08:39:07.458Z,32.00
2022-09-12T08:41:40.983Z,31.10
2022-09-12T08:44:27.166Z,26.00
2022-09-12T08:47:10.815Z,17.70
2022-09-12T08:49:53.364Z,21.40
2022-09-12T08:52:37.282Z,21.10
2022-09-12T08:55:24.550Z,15.90
2022-09-12T08:57:53.646Z,14.60
2022-09-12T09:00:21.861Z,15.50
2022-09-12T09:03:01.731Z,17.30
2022-09-12T09:05:54.498Z,18.30
2022-09-12T09:08:58.350Z,23.60
2022-09-12T09:11:53.151Z,17.00
2022-09-12T09:14:54.458Z,12.70
2022-09-12T09:20:28.529Z,14.30
2022-09-12T09:23:19.882Z,17.50
2022-09-12T09:28:51.590Z,16.80
2022-09-12T09:31:23.487Z,16.00
2022-09-12T09:33:55.310Z,21.30
2022-09-12T09:36:41.146Z,22.80
2022-09-12T09:39:44.012Z,22.30
2022-09-12T09:42:54.152Z,19.50
2022-09-12T09:45:24.901Z,29.40
2022-09-12T09:48:27.658Z,19.80
2022-09-12T09:51:00.357Z,20.90
2022-09-12T09:53:48.801Z,19.70
2022-09-12T09:56:40.260Z,20.50
2022-09-12T09:59:28.206Z,16.10
2022-09-12T10:02:14.052Z,18.80
2022-09-12T10:04:55.915Z,16.60
2022-09-12T10:07:26.075Z,16.30
2022-09-12T10:10:19.591Z,14.50
2022-09-12T10:12:47.404Z,22.10
2022-09-12T10:15:21.571Z,18.10
2022-09-12T10:17:51.040Z,18.50
2022-09-12T10:20:42.993Z,27.10
2022-09-12T10:23:37.549Z,15.80
2022-09-12T10:26:13.057Z,36.50
2022-09-12T10:28:48.025Z,23.20
2022-09-12T10:31:29.656Z,20.90
2022-09-12T10:34:00.277Z,20.30
2022-09-12T10:36:40.456Z,23.50
2022-09-12T10:39:19.161Z,28.30
2022-09-12T10:41:47.149Z,18.90
2022-09-12T10:44:26.480Z,14.20
2022-09-12T10:46:55.422Z,18.10
2022-09-12T10:49:31.145Z,15.00
2022-09-12T10:52:22.561Z,23.10
2022-09-12T10:54:52.242Z,17.20
2022-09-12T10:57:51.135Z,13.80
2022-09-12T11:00:27.452Z,19.10
2022-09-12T11:03:52.237Z,16.50
2022-09-12T11:06:32.202Z,11.10
2022-09-12T11:09:24.026Z,17.20
2022-09-12T11:12:36.686Z,16.80
2022-09-12T11:16:00.355Z,14.50
2022-09-12T11:19:03.310Z,13.80
2022-09-12T11:22:19.330Z,15.20
2022-09-12T11:25:20.084Z,18.70
2022-09-12T11:28:14.098Z,16.70
2022-09-12T11:31:22.552Z,18.20
2022-09-12T11:33:56.670Z,15.00
2022-09-12T11:36:36.927Z,11.90
2022-09-12T11:39:21.937Z,14.10
2022-09-12T11:41:56.922Z,13.40
2022-09-12T11:44:41.798Z,12.80
2022-09-12T11:47:14.488Z,8.10
2022-09-12T11:49:51.450Z,9.70
2022-09-12T11:52:26.914Z,11.30
2022-09-12T11:55:17.097Z,11.10
2022-09-12T11:57:54.949Z,11.70
2022-09-12T12:00:39.788Z,9.50
2022-09-12T12:03:37.167Z,10.50
2022-09-12T12:06:30.698Z,13.50
2022-09-12T12:08:59.171Z,10.40
2022-09-12T12:11:37.560Z,7.90
2022-09-12T12:14:20.790Z,12.10
2022-09-12T12:16:49.994Z,11.00
2022-09-12T12:19:17.555Z,9.70
2022-09-12T12:21:50.938Z,11.20
2022-09-12T12:24:26.617Z,9.10
2022-09-12T12:27:43.731Z,13.70
2022-09-12T12:30:29.451Z,6.70
2022-09-12T12:33:15.998Z,12.10
2022-09-12T12:36:03.453Z,8.60
2022-09-12T12:38:43.027Z,8.80
2022-09-12T12:41:16.424Z,7.60
2022-09-12T12:43:50.189Z,6.50
2022-09-12T12:46:24.114Z,9.40
2022-09-12T12:49:11.107Z,7.80
2022-09-12T12:52:02.393Z,10.90
2022-09-12T12:54:33.745Z,7.50
2022-09-12T12:57:20.243Z,8.90
2022-09-12T12:59:56.323Z,8.00
2022-09-12T13:02:26.976Z,8.90
2022-09-12T13:04:56.318Z,10.70
2022-09-12T13:07:39.454Z,7.30
2022-09-12T13:10:08.442Z,8.10
2022-09-12T13:12:48.924Z,7.20
2022-09-12T13:15:49.509Z,11.60
2022-09-12T13:18:28.247Z,8.40
2022-09-12T13:21:11.715Z,12.40
2022-09-12T13:23:40.687Z,8.80
2022-09-12T13:26:21.341Z,11.60
2022-09-12T13:28:50.153Z,8.80
2022-09-12T13:31:31.110Z,11.30
2022-09-12T13:34:04.113Z,11.30
2022-09-12T13:36:51.333Z,9.20
2022-09-12T13:39:28.840Z,9.20
2022-09-12T13:42:43.711Z,9.60
2022-09-12T13:45:23.092Z,9.40
2022-09-12T13:48:01.958Z,8.50
2022-09-12T13:51:06.121Z,10.00
2022-09-12T13:53:47.369Z,12.50
2022-09-12T13:56:20.742Z,12.60
2022-09-12T13:58:57.583Z,12.80
2022-09-12T14:01:42.863Z,11.30
2022-09-12T14:04:39.666Z,13.20
2022-09-12T14:07:23.485Z,10.40
2022-09-12T14:10:00.962Z,13.20
2022-09-12T14:12:40.328Z,10.80
2022-09-12T14:15:24.570Z,11.40
2022-09-12T14:18:03.157Z,10.30
2022-09-12T14:20:37.860Z,9.30
2022-09-12T14:23:21.496Z,10.50
2022-09-12T14:25:49.997Z,11.20
2022-09-12T14:28:23.171Z,8.50
2022-09-12T14:31:06.680Z,8.80
2022-09-12T14:34:09.624Z,9.60
2022-09-12T14:36:51.914Z,11.40
2022-09-12T14:39:34.031Z,12.40
2022-09-12T14:42:20.998Z,11.50
2022-09-12T14:45:31.377Z,9.90
2022-09-12T14:47:59.484Z,8.20
2022-09-12T14:50:35.289Z,11.70
2022-09-12T14:53:23.262Z,10.50
2022-09-12T14:55:58.133Z,10.30
2022-09-12T14:58:28.190Z,9.60
2022-09-12T15:01:08.268Z,8.10
2022-09-12T15:03:53.395Z,11.10
2022-09-12T15:06:29.235Z,13.60
2022-09-12T15:09:08.445Z,13.40
2022-09-12T15:11:36.172Z,11.00
2022-09-12T15:14:13.988Z,9.40
2022-09-12T15:16:42.069Z,8.80
2022-09-12T15:19:09.736Z,12.50
2022-09-12T15:21:37.806Z,8.40
2022-09-12T15:24:05.658Z,9.70
2022-09-12T15:26:33.362Z,7.40
2022-09-12T15:29:01.065Z,7.60
2022-09-12T15:31:31.627Z,9.00
2022-09-12T15:36:29.870Z,10.60
2022-09-12T15:38:58.349Z,7.10
2022-09-12T15:41:37.403Z,9.80
2022-09-12T15:44:11.146Z,9.60
2022-09-12T15:46:39.535Z,8.70
2022-09-12T15:49:07.525Z,8.60
2022-09-12T15:51:35.210Z,10.40
2022-09-12T15:54:04.853Z,8.50
2022-09-12T15:56:32.704Z,8.20
2022-09-12T15:59:00.557Z,8.00
2022-09-12T16:01:29.328Z,9.10
2022-09-12T16:03:57.886Z,8.10
2022-09-12T16:06:27.608Z,8.60
2022-09-12T16:08:55.412Z,10.00
2022-09-12T16:11:26.709Z,12.10
2022-09-12T16:13:56.827Z,8.70
2022-09-12T16:16:24.623Z,10.10
2022-09-12T16:18:52.830Z,10.70
2022-09-12T16:21:20.686Z,8.20
2022-09-12T16:23:49.352Z,6.60
2022-09-12T16:26:17.454Z,10.30
2022-09-12T16:28:45.714Z,8.40
2022-09-12T16:31:14.480Z,7.40
2022-09-12T16:33:42.199Z,10.10
2022-09-12T16:36:14.154Z,6.20
2022-09-12T16:38:47.805Z,7.90
2022-09-12T16:41:17.651Z,7.00
2022-09-12T16:43:46.234Z,10.10
2022-09-12T16:46:21.295Z,9.50
2022-09-12T16:48:52.935Z,10.20
2022-09-12T16:51:28.130Z,10.50
2022-09-12T16:53:56.290Z,7.30
2022-09-12T16:56:25.309Z,8.30
2022-09-12T16:58:54.287Z,8.80
2022-09-12T17:01:25.446Z,7.70
2022-09-12T17:03:58.789Z,10.60
2022-09-12T17:06:27.949Z,10.20
2022-09-12T17:09:06.401Z,10.70
2022-09-12T17:11:38.128Z,8.90
2022-09-12T17:14:08.650Z,9.50
2022-09-12T17:16:47.980Z,9.40
2022-09-12T17:19:26.693Z,11.00
2022-09-12T17:21:54.770Z,8.70
2022-09-12T17:24:23.071Z,9.40
2022-09-12T17:26:51.747Z,10.30
2022-09-12T17:29:19.862Z,8.40
2022-09-12T17:31:48.175Z,12.10
2022-09-12T17:34:17.586Z,9.30
2022-09-12T17:36:45.669Z,9.10
2022-09-12T17:39:14.698Z,8.10
2022-09-12T17:41:43.156Z,7.40
2022-09-12T17:44:13.759Z,9.20
2022-09-12T17:46:42.429Z,8.60
2022-09-12T17:49:18.569Z,14.90
2022-09-12T17:51:46.398Z,11.40
2022-09-12T17:54:17.749Z,10.30
2022-09-12T17:56:47.366Z,14.00
2022-09-12T17:59:21.815Z,14.40
2022-09-12T18:02:08.113Z,10.10
2022-09-12T18:04:35.815Z,11.60
2022-09-12T18:07:05.938Z,11.20
2022-09-12T18:09:34.114Z,13.60
2022-09-12T18:12:02.198Z,10.90
2022-09-12T18:14:29.917Z,10.00
2022-09-12T18:16:57.757Z,11.50
2022-09-12T18:19:26.639Z,9.40
2022-09-12T18:21:55.938Z,21.70
2022-09-12T18:24:24.071Z,12.90
2022-09-12T18:26:51.808Z,11.00
2022-09-12T18:29:20.041Z,13.20
2022-09-12T18:31:49.085Z,13.00
2022-09-12T18:34:18.227Z,12.90
2022-09-12T18:36:50.956Z,10.90
2022-09-12T18:39:18.778Z,12.10
2022-09-12T18:41:46.530Z,10.20
2022-09-12T18:44:14.343Z,10.40
2022-09-12T18:46:42.157Z,11.70
2022-09-12T18:49:10.396Z,11.00
2022-09-12T18:51:40.132Z,12.60
2022-09-12T18:54:13.981Z,12.20
2022-09-12T18:56:43.937Z,12.40
2022-09-12T18:59:15.263Z,11.60
2022-09-12T19:01:43.875Z,14.30
2022-09-12T19:04:14.324Z,14.40
2022-09-12T19:06:48.188Z,13.50
2022-09-12T19:09:18.956Z,14.10
2022-09-12T19:11:50.703Z,17.70
2022-09-12T19:14:22.800Z,13.10
2022-09-12T19:16:52.003Z,11.50
2022-09-12T19:19:20.533Z,12.30
2022-09-12T19:21:48.292Z,10.90
2022-09-12T19:24:17.187Z,14.40
2022-09-12T19:26:45.392Z,14.20
2022-09-12T19:29:14.708Z,13.90
2022-09-12T19:31:44.901Z,13.40
2022-09-12T19:34:17.355Z,15.50
2022-09-12T19:36:46.918Z,13.50
2022-09-12T19:39:19.943Z,13.20
2022-09-12T19:41:58.079Z,12.10
2022-09-12T19:44:28.658Z,14.40
2022-09-12T19:47:03.472Z,13.10
2022-09-12T19:49:44.689Z,14.00
2022-09-12T19:52:17.547Z,12.30
2022-09-12T19:54:49.284Z,14.70
2022-09-12T19:57:21.012Z,12.30
2022-09-12T19:59:49.971Z,14.50
2022-09-12T20:02:21.472Z,11.20
2022-09-12T20:04:49.546Z,11.60
2022-09-12T20:07:17.463Z,14.90
2022-09-12T20:09:45.944Z,14.10
2022-09-12T20:12:24.182Z,15.20
2022-09-12T20:14:57.161Z,16.20
2022-09-12T20:17:27.991Z,15.20
2022-09-12T20:19:56.467Z,14.50
2022-09-12T20:22:24.842Z,15.30
2022-09-12T20:24:52.943Z,14.60
2022-09-12T20:27:20.963Z,13.30
2022-09-12T20:29:49.900Z,15.80
2022-09-12T20:32:22.178Z,17.90
2022-09-12T20:34:51.827Z,15.50
2022-09-12T20:37:21.242Z,16.60
2022-09-12T20:42:20.289Z,17.60
2022-09-12T20:44:48.822Z,15.70
2022-09-12T20:47:16.692Z,17.50
2022-09-12T20:49:44.395Z,18.80
2022-09-12T20:52:12.127Z,13.00
2022-09-12T20:54:47.505Z,17.10
2022-09-12T20:57:15.212Z,19.60
2022-09-12T20:59:56.912Z,12.20
2022-09-12T21:02:24.767Z,13.90
2022-09-12T21:04:52.752Z,15.60
2022-09-12T21:07:20.450Z,14.90
2022-09-12T21:09:48.091Z,11.80
2022-09-12T21:12:15.886Z,14.50
2022-09-12T21:14:43.622Z,19.60
2022-09-12T21:17:11.362Z,14.80
2022-09-12T21:19:39.318Z,16.80
2022-09-12T21:22:07.042Z,15.10
2022-09-12T21:24:34.766Z,12.70
2022-09-12T21:27:04.555Z,14.50
2022-09-12T21:29:32.664Z,16.10
2022-09-12T21:32:00.338Z,13.80
2022-09-12T21:34:28.190Z,19.30
2022-09-12T21:36:55.857Z,15.30
2022-09-12T21:39:23.777Z,17.60
2022-09-12T21:41:51.450Z,15.40
2022-09-12T21:44:19.206Z,14.90
2022-09-12T21:46:46.954Z,16.20
2022-09-12T21:49:14.760Z,15.30
2022-09-12T21:51:42.509Z,14.10
2022-09-12T21:54:10.165Z,15.20
2022-09-12T21:56:37.953Z,14.60
2022-09-12T21:59:05.678Z,12.30
2022-09-12T22:01:33.618Z,16.50
2022-09-12T22:04:01.409Z,16.70
2022-09-12T22:06:29.187Z,16.50
2022-09-12T22:08:57.023Z,14.70
2022-09-12T22:11:24.778Z,14.00
2022-09-12T22:13:52.850Z,13.60
2022-09-12T22:16:20.691Z,16.60
2022-09-12T22:18:50.586Z,13.50
2022-09-12T22:21:24.245Z,14.90
2022-09-12T22:24:10.592Z,17.00
2022-09-12T22:26:44.842Z,16.00
2022-09-12T22:29:13.605Z,16.70
2022-09-12T22:31:41.778Z,16.20
2022-09-12T22:34:09.857Z,15.00
2022-09-12T22:36:39.193Z,16.80
2022-09-12T22:39:08.262Z,20.10
2022-09-12T22:41:36.232Z,16.80
2022-09-12T22:44:04.088Z,14.20
2022-09-12T22:46:32.486Z,17.50
2022-09-12T22:49:00.695Z,17.20
2022-09-12T22:51:28.522Z,15.00
2022-09-12T22:53:56.855Z,15.10
2022-09-12T22:56:26.049Z,16.40
2022-09-12T22:58:54.231Z,15.40
2022-09-12T23:01:22.887Z,23.20
2022-09-12T23:03:51.645Z,14.50
2022-09-12T23:06:21.032Z,17.80
2022-09-12T23:08:48.737Z,15.40
2022-09-12T23:11:21.456Z,15.30
2022-09-12T23:13:51.386Z,14.10
2022-09-12T23:16:25.993Z,18.20
2022-09-12T23:18:54.124Z,14.60
2022-09-12T23:21:22.468Z,19.30
2022-09-12T23:23:50.902Z,17.30
2022-09-12T23:26:24.862Z,14.80
2022-09-12T23:28:56.922Z,16.30
2022-09-12T23:31:32.229Z,16.50
2022-09-12T23:34:06.018Z,16.60
2022-09-12T23:36:35.592Z,17.10
2022-09-12T23:39:03.537Z,18.40
2022-09-12T23:41:31.650Z,16.30
2022-09-12T23:43:59.648Z,15.50
2022-09-12T23:46:27.495Z,15.10
2022-09-12T23:48:55.243Z,18.40
2022-09-12T23:51:23.081Z,21.00
2022-09-12T23:53:53.135Z,20.40
2022-09-12T23:56:22.130Z,21.60
2022-09-12T23:58:50.175Z,16.50
